Time;durP1;ratioP1;P1;durP2;ratioP2;P2;SDS_P1;SDS_P2;PMS_P1;PMS_P2;Temp;Humidity;BMP_temperature;BMP_pressure;BME280_temperature;BME280_humidity;BME280_pressure;Samples;Min_cycle;Max_cycle;Signal;HPM_P1;HPM_P2
2021/06/12 00:00:14;;;;;;;3.90;3.53;;;;;;;21.40;64.93;100915.53;5054830;28;20253;-77
2021/06/12 00:02:42;;;;;;;3.80;3.50;;;;;;;21.36;65.30;100912.31;5033875;28;20216;-77
2021/06/12 00:05:09;;;;;;;4.00;3.70;;;;;;;21.35;65.15;100912.47;5040766;28;20235;-77
2021/06/12 00:07:36;;;;;;;4.70;4.30;;;;;;;21.32;65.56;100916.34;5050168;28;20215;-77
2021/06/12 00:10:05;;;;;;;4.03;3.63;;;;;;;21.31;65.60;100916.53;5047741;28;20587;-77
2021/06/12 00:12:31;;;;;;;4.33;3.93;;;;;;;21.29;65.61;100918.53;5052463;28;20199;-77
2021/06/12 00:14:57;;;;;;;5.10;4.70;;;;;;;21.25;65.69;100907.16;5039354;28;20238;-76
2021/06/12 00:17:23;;;;;;;4.73;4.20;;;;;;;21.21;65.72;100910.34;5051676;28;20289;-75
2021/06/12 00:19:50;;;;;;;5.10;4.70;;;;;;;21.15;65.87;100911.78;5052121;28;20586;-76
2021/06/12 00:22:16;;;;;;;5.40;4.90;;;;;;;21.10;66.27;100915.00;5040196;28;20210;-77
2021/06/12 00:24:42;;;;;;;5.63;5.03;;;;;;;21.07;66.61;100922.59;5049967;28;20221;-76
2021/06/12 00:27:09;;;;;;;6.17;5.10;;;;;;;21.04;66.63;100917.47;5046339;28;20244;-78
2021/06/12 00:29:35;;;;;;;5.23;4.83;;;;;;;21.00;66.86;100918.78;5041505;28;20199;-77
2021/06/12 00:32:01;;;;;;;5.20;4.70;;;;;;;20.94;66.90;100923.00;5040367;28;20691;-76
2021/06/12 00:34:27;;;;;;;6.57;5.80;;;;;;;20.90;67.32;100923.47;5053887;28;20228;-77
2021/06/12 00:36:55;;;;;;;5.87;5.37;;;;;;;20.85;67.62;100918.50;5045780;28;20209;-77
2021/06/12 00:39:21;;;;;;;6.83;6.07;;;;;;;20.80;67.69;100916.28;5036710;28;20202;-78
2021/06/12 00:41:47;;;;;;;7.13;6.30;;;;;;;20.78;67.85;100914.75;5051070;28;20219;-78
2021/06/12 00:44:13;;;;;;;6.90;6.30;;;;;;;20.73;68.09;100912.50;5035914;28;20228;-76
2021/06/12 00:46:39;;;;;;;7.23;6.57;;;;;;;20.68;68.25;100914.81;5037492;28;20320;-77
2021/06/12 00:49:06;;;;;;;7.70;7.00;;;;;;;20.65;68.39;100909.72;5043776;28;20211;-77
2021/06/12 00:51:32;;;;;;;7.27;6.67;;;;;;;20.62;68.80;100910.03;5039352;28;20205;-75
2021/06/12 00:53:59;;;;;;;8.33;7.33;;;;;;;20.59;68.76;100907.66;5042104;28;20255;-77
2021/06/12 00:56:26;;;;;;;7.27;6.63;;;;;;;20.55;69.08;100911.66;5037164;28;20772;-76
2021/06/12 00:58:53;;;;;;;8.23;7.53;;;;;;;20.53;69.21;100900.16;5050910;28;20207;-76
2021/06/12 01:01:21;;;;;;;7.77;7.07;;;;;;;20.49;69.62;100904.16;5046109;28;20205;-78
2021/06/12 01:03:47;;;;;;;8.73;7.70;;;;;;;20.48;69.47;100901.63;5042741;28;20716;-78
2021/06/12 01:06:15;;;;;;;8.57;7.77;;;;;;;20.45;69.48;100900.06;5050362;28;20204;-77
2021/06/12 01:08:43;;;;;;;8.33;7.60;;;;;;;20.41;69.96;100904.09;5052744;28;20212;-77
2021/06/12 01:11:11;;;;;;;7.20;6.50;;;;;;;20.39;69.90;100903.41;5053587;28;20225;-77
2021/06/12 01:13:49;;;;;;;8.47;7.70;;;;;;;20.35;69.96;100894.72;5051890;28;20224;-78
2021/06/12 01:16:21;;;;;;;9.00;7.63;;;;;;;20.34;70.27;100905.69;5046014;28;20537;-77
2021/06/12 01:18:49;;;;;;;8.37;7.73;;;;;;;20.32;70.20;100907.69;5051893;28;20228;-76
2021/06/12 01:21:24;;;;;;;9.57;8.43;;;;;;;20.30;70.26;100913.25;5045630;28;20670;-76
2021/06/12 01:24:35;;;;;;;9.90;8.30;;;;;;;20.27;70.27;100902.72;5044857;28;20224;-77
2021/06/12 01:27:30;;;;;;;8.77;7.97;;;;;;;20.24;70.53;100896.81;4957092;28;20229;-76
2021/06/12 01:30:15;;;;;;;7.93;7.23;;;;;;;20.22;70.57;100901.50;5039054;28;20207;-78
2021/06/12 01:32:47;;;;;;;8.80;8.00;;;;;;;20.20;70.88;100904.38;5042371;28;20215;-78
2021/06/12 01:35:18;;;;;;;8.77;8.07;;;;;;;20.19;70.79;100896.41;5046840;28;20235;-78
2021/06/12 01:37:46;;;;;;;9.67;8.67;;;;;;;20.16;70.88;100892.16;5044246;28;20204;-78
2021/06/12 01:40:14;;;;;;;10.13;9.10;;;;;;;20.16;70.96;100896.69;5053333;28;20900;-76
2021/06/12 01:42:43;;;;;;;8.67;7.83;;;;;;;20.14;71.15;100896.00;5050778;28;20212;-77
2021/06/12 01:45:11;;;;;;;9.77;8.87;;;;;;;20.14;71.10;100896.84;5051408;28;20232;-77
2021/06/12 01:47:38;;;;;;;8.90;8.07;;;;;;;20.14;71.23;100890.59;5056643;28;20224;-77
2021/06/12 01:50:06;;;;;;;10.27;8.77;;;;;;;20.14;70.99;100887.88;5046119;28;20213;-77
2021/06/12 01:52:33;;;;;;;9.30;8.37;;;;;;;20.14;71.29;100890.59;5051958;28;20198;-78
2021/06/12 01:55:01;;;;;;;9.23;8.43;;;;;;;20.15;71.19;100892.28;5050395;28;20215;-77
2021/06/12 01:57:28;;;;;;;9.50;8.60;;;;;;;20.15;71.24;100886.88;5056112;28;20196;-77
2021/06/12 01:59:57;;;;;;;9.63;8.23;;;;;;;20.14;71.14;100886.03;5049766;28;20620;-77
2021/06/12 02:02:24;;;;;;;9.43;8.63;;;;;;;20.14;71.31;100879.78;5047654;28;20750;-77
2021/06/12 02:04:51;;;;;;;9.20;8.30;;;;;;;20.12;71.17;100885.34;5043566;28;20247;-77
2021/06/12 02:07:17;;;;;;;8.97;8.17;;;;;;;20.10;71.32;100882.78;5062752;28;20287;-76
2021/06/12 02:09:47;;;;;;;8.10;7.30;;;;;;;20.09;71.36;100878.38;5049164;28;20214;-78
2021/06/12 02:12:14;;;;;;;9.30;8.40;;;;;;;20.08;71.44;100871.25;5053194;28;20202;-77
2021/06/12 02:14:42;;;;;;;9.73;8.60;;;;;;;20.08;71.58;100887.50;5052505;28;20228;-77
2021/06/12 02:17:10;;;;;;;8.93;8.07;;;;;;;20.05;71.55;100884.25;5053314;28;20205;-76
2021/06/12 02:19:38;;;;;;;8.63;7.67;;;;;;;20.03;71.53;100889.81;5058526;28;20207;-76
2021/06/12 02:22:06;;;;;;;8.23;7.53;;;;;;;20.02;71.57;100882.72;5043171;28;20208;-76
2021/06/12 02:24:32;;;;;;;8.83;8.00;;;;;;;20.01;71.38;100883.72;5047848;28;20720;-77
2021/06/12 02:26:58;;;;;;;8.90;8.03;;;;;;;20.00;71.82;100870.34;5045391;28;20233;-77
2021/06/12 02:29:26;;;;;;;7.37;6.77;;;;;;;19.99;71.65;100872.19;5044880;28;20281;-78
2021/06/12 02:31:57;;;;;;;9.27;8.10;;;;;;;20.00;71.88;100870.34;5047700;28;20200;-77
2021/06/12 02:34:24;;;;;;;8.20;7.40;;;;;;;19.99;71.77;100874.03;5051621;28;20235;-77
2021/06/12 02:36:51;;;;;;;8.63;7.53;;;;;;;19.98;71.90;100870.50;5044781;28;20211;-77
2021/06/12 02:39:17;;;;;;;8.17;7.30;;;;;;;19.98;71.88;100875.91;5055908;28;20580;-76
2021/06/12 02:41:43;;;;;;;8.20;7.50;;;;;;;19.99;71.96;100890.28;5039139;28;20214;-77
2021/06/12 02:44:09;;;;;;;9.37;7.53;;;;;;;19.98;71.88;100891.28;5043360;28;20219;-77
2021/06/12 02:46:40;;;;;;;8.20;7.40;;;;;;;19.95;72.05;100889.72;5054556;28;20228;-78
2021/06/12 02:49:08;;;;;;;8.23;7.43;;;;;;;19.94;72.56;100888.00;5045701;28;20197;-77
2021/06/12 02:51:38;;;;;;;8.23;7.43;;;;;;;19.91;72.49;100882.91;5046425;28;20206;-78
2021/06/12 02:54:06;;;;;;;11.83;8.23;;;;;;;19.90;72.42;100886.59;5045680;28;20224;-77
2021/06/12 02:56:33;;;;;;;8.90;8.10;;;;;;;19.88;72.68;100882.38;5056916;28;20205;-78
2021/06/12 02:59:03;;;;;;;9.07;8.17;;;;;;;19.86;72.70;100887.94;5042724;28;20225;-78
2021/06/12 03:01:30;;;;;;;9.40;8.50;;;;;;;19.85;72.93;100877.28;5044742;28;20568;-78
2021/06/12 03:03:56;;;;;;;14.10;8.03;;;;;;;19.83;72.92;100885.53;5048083;28;20218;-78
2021/06/12 03:06:24;;;;;;;8.27;7.57;;;;;;;19.82;72.99;100875.72;5049365;28;20212;-77
2021/06/12 03:08:52;;;;;;;9.33;8.37;;;;;;;19.81;73.01;100879.41;5055985;28;20797;-78
2021/06/12 03:11:22;;;;;;;9.73;8.17;;;;;;;19.78;73.05;100879.72;5067910;28;20212;-78
2021/06/12 03:13:51;;;;;;;8.40;7.70;;;;;;;19.76;73.02;100885.28;5043716;28;20233;-78
2021/06/12 03:16:17;;;;;;;9.57;8.67;;;;;;;19.75;73.13;100880.00;5040355;28;20308;-78
2021/06/12 03:18:46;;;;;;;10.10;8.93;;;;;;;19.73;73.36;100879.31;5038744;28;22371;-78
2021/06/12 03:21:14;;;;;;;11.00;9.90;;;;;;;19.70;73.46;100876.94;5050981;28;20235;-77
2021/06/12 03:23:42;;;;;;;10.57;9.47;;;;;;;19.69;73.54;100869.81;5040863;28;20641;-78
2021/06/12 03:26:10;;;;;;;13.07;10.97;;;;;;;19.68;73.64;100871.69;5053620;28;20197;-77
2021/06/12 03:28:39;;;;;;;13.57;11.97;;;;;;;19.66;73.76;100873.69;5049813;28;20227;-77
2021/06/12 03:31:06;;;;;;;15.07;12.30;;;;;;;19.65;73.82;100880.09;5051295;28;20213;-77
2021/06/12 03:33:32;;;;;;;14.80;12.77;;;;;;;19.63;73.90;100878.53;5049492;28;20230;-77
2021/06/12 03:35:58;;;;;;;13.87;11.60;;;;;;;19.62;73.79;100882.22;5052320;28;20225;-78
2021/06/12 03:38:26;;;;;;;13.63;12.33;;;;;;;19.62;73.87;100879.53;5041088;28;20262;-77
2021/06/12 03:40:52;;;;;;;15.23;12.43;;;;;;;19.62;74.13;100879.53;5048885;28;20210;-78
2021/06/12 03:43:19;;;;;;;13.67;12.43;;;;;;;19.61;74.22;100883.22;5059703;28;20222;-77
2021/06/12 03:45:51;;;;;;;14.97;13.40;;;;;;;19.60;74.20;100876.97;5043240;28;20205;-78
2021/06/12 03:48:20;;;;;;;14.63;12.63;;;;;;;19.59;74.49;100869.84;5045254;28;20207;-77
2021/06/12 03:50:48;;;;;;;14.90;13.30;;;;;;;19.59;74.16;100883.38;5047007;28;20660;-79
2021/06/12 03:53:14;;;;;;;15.80;14.20;;;;;;;19.59;74.39;100875.25;5052730;28;20228;-77
2021/06/12 03:55:41;;;;;;;14.03;12.47;;;;;;;19.60;74.39;100881.53;5042580;28;20211;-78
2021/06/12 03:58:07;;;;;;;15.50;13.90;;;;;;;19.59;74.38;100882.50;5050980;28;20283;-78
2021/06/12 04:00:34;;;;;;;15.37;13.53;;;;;;;19.59;74.44;100877.13;5057021;28;20353;-79
2021/06/12 04:03:02;;;;;;;15.93;13.77;;;;;;;19.59;74.52;100882.50;5053780;28;20206;-78
2021/06/12 04:05:28;;;;;;;17.97;14.97;;;;;;;19.58;74.59;100870.00;5043424;28;20207;-77
2021/06/12 04:07:54;;;;;;;17.33;14.67;;;;;;;19.58;74.46;100867.31;5052749;28;20253;-78
2021/06/12 04:10:20;;;;;;;16.60;14.73;;;;;;;19.59;74.64;100867.16;5057985;28;20206;-77
2021/06/12 04:12:46;;;;;;;17.07;15.20;;;;;;;19.58;74.69;100875.41;5059874;28;20198;-78
2021/06/12 04:15:13;;;;;;;17.13;15.43;;;;;;;19.58;74.68;100884.38;5056375;28;20571;-78
2021/06/12 04:17:40;;;;;;;16.47;14.73;;;;;;;19.59;74.97;100877.13;5050434;28;20207;-78
2021/06/12 04:20:09;;;;;;;17.10;15.23;;;;;;;19.60;74.98;100876.13;5054806;28;20221;-78
2021/06/12 04:22:35;;;;;;;15.87;14.27;;;;;;;19.62;74.98;100879.53;5055306;28;20199;-78
2021/06/12 04:25:01;;;;;;;17.27;14.57;;;;;;;19.63;74.93;100878.53;5052478;28;20284;-79
2021/06/12 04:27:28;;;;;;;17.53;15.77;;;;;;;19.64;75.12;100880.22;5063654;28;20291;-77
2021/06/12 04:29:54;;;;;;;18.43;15.37;;;;;;;19.65;75.06;100876.53;5063751;28;20625;-77
2021/06/12 04:32:20;;;;;;;17.73;15.43;;;;;;;19.64;74.88;100870.28;5052241;28;20236;-78
2021/06/12 04:34:48;;;;;;;16.23;14.43;;;;;;;19.65;75.01;100879.22;5048516;28;20282;-78
2021/06/12 04:37:15;;;;;;;16.00;14.40;;;;;;;19.65;74.88;100866.56;5048561;28;20210;-78
2021/06/12 04:39:42;;;;;;;15.83;14.33;;;;;;;19.64;75.07;100867.56;5048526;28;20745;-78
2021/06/12 04:42:09;;;;;;;16.57;14.50;;;;;;;19.65;74.93;100863.00;5042426;28;20229;-78
2021/06/12 04:44:35;;;;;;;15.67;13.60;;;;;;;19.63;74.84;100860.47;5044420;28;20229;-77
2021/06/12 04:47:01;;;;;;;14.87;13.27;;;;;;;19.63;75.09;100859.59;5047242;28;20572;-77
2021/06/12 04:49:28;;;;;;;14.43;12.93;;;;;;;19.63;75.09;100862.31;5049548;28;20210;-76
2021/06/12 04:51:54;;;;;;;17.13;14.20;;;;;;;19.62;75.14;100860.59;5048922;28;20247;-77
2021/06/12 04:54:21;;;;;;;19.57;14.00;;;;;;;19.62;74.95;100866.88;5054403;28;20697;-78
2021/06/12 04:56:47;;;;;;;18.20;15.00;;;;;;;19.61;75.12;100865.16;5047545;28;20207;-77
2021/06/12 04:59:13;;;;;;;17.77;14.33;;;;;;;19.62;74.92;100864.16;5054600;28;20668;-77
2021/06/12 05:01:39;;;;;;;16.00;14.43;;;;;;;19.62;75.04;100860.59;5048130;28;20203;-77
2021/06/12 05:04:05;;;;;;;15.63;14.03;;;;;;;19.62;74.92;100866.00;5055165;28;20313;-77
2021/06/12 05:06:31;;;;;;;19.07;15.67;;;;;;;19.63;74.95;100870.41;5054800;28;20198;-77
2021/06/12 05:08:57;;;;;;;18.20;15.40;;;;;;;19.63;74.89;100862.31;5050997;28;20230;-78
2021/06/12 05:11:25;;;;;;;16.13;14.43;;;;;;;19.65;74.85;100874.69;5045505;28;20207;-78
2021/06/12 05:13:51;;;;;;;18.07;14.57;;;;;;;19.66;75.10;100867.41;5044051;28;20232;-78
2021/06/12 05:16:17;;;;;;;20.10;14.83;;;;;;;19.71;75.06;100859.69;5049388;28;20577;-79
2021/06/12 05:18:44;;;;;;;18.20;14.70;;;;;;;19.72;75.01;100847.88;5045780;28;20207;-78
2021/06/12 05:21:12;;;;;;;18.40;15.80;;;;;;;19.75;74.85;100856.53;5058169;28;20776;-78
2021/06/12 05:23:38;;;;;;;19.30;16.83;;;;;;;19.77;74.79;100868.06;5050317;28;20218;-78
2021/06/12 05:26:05;;;;;;;22.60;16.57;;;;;;;19.79;74.82;100861.66;5054838;28;20206;-78
2021/06/12 05:28:32;;;;;;;18.00;16.10;;;;;;;19.81;74.65;100856.94;5050089;28;20222;-78
2021/06/12 05:30:59;;;;;;;18.03;16.23;;;;;;;19.82;74.70;100855.94;5051951;28;20217;-78
2021/06/12 05:33:26;;;;;;;21.07;16.93;;;;;;;19.85;74.52;100856.50;5039172;28;20216;-78
2021/06/12 05:35:52;;;;;;;20.90;16.37;;;;;;;19.87;74.56;100854.50;5047053;28;20208;-77
2021/06/12 05:38:19;;;;;;;20.57;16.27;;;;;;;19.91;74.47;100853.16;5056401;28;20286;-78
2021/06/12 05:40:46;;;;;;;20.20;17.07;;;;;;;19.97;74.59;100859.81;5045343;28;20208;-79
2021/06/12 05:43:12;;;;;;;21.83;16.63;;;;;;;20.04;74.50;100859.09;5055610;28;20265;-79
2021/06/12 05:45:39;;;;;;;19.60;16.43;;;;;;;20.11;74.72;100878.22;5046661;28;20202;-78
2021/06/12 05:48:06;;;;;;;17.83;15.83;;;;;;;20.15;74.39;100868.81;5050413;28;20235;-79
2021/06/12 05:50:32;;;;;;;20.60;15.30;;;;;;;20.20;74.02;100871.06;5045634;28;20576;-78
2021/06/12 05:52:58;;;;;;;19.93;14.87;;;;;;;20.21;73.89;100876.31;5057127;28;20215;-77
2021/06/12 05:55:24;;;;;;;21.37;16.57;;;;;;;20.24;73.92;100884.13;5044655;28;20277;-78
2021/06/12 05:57:50;;;;;;;20.00;15.87;;;;;;;20.26;73.61;100881.25;5052397;28;20840;-77
2021/06/12 06:00:17;;;;;;;18.73;15.60;;;;;;;20.29;73.54;100872.81;5053066;28;20209;-78
2021/06/12 06:02:45;;;;;;;19.20;16.27;;;;;;;20.32;73.53;100877.94;5053990;28;20211;-77
2021/06/12 06:05:12;;;;;;;22.00;16.73;;;;;;;20.35;73.33;100877.63;5060885;28;20227;-77
2021/06/12 06:07:38;;;;;;;20.80;16.60;;;;;;;20.36;73.16;100885.63;5056510;28;20231;-78
2021/06/12 06:10:05;;;;;;;21.63;17.07;;;;;;;20.39;72.79;100887.19;5052521;28;20216;-78
2021/06/12 06:12:31;;;;;;;20.33;16.70;;;;;;;20.42;72.64;100878.75;5057915;28;20670;-77
2021/06/12 06:14:57;;;;;;;22.40;17.47;;;;;;;20.45;72.82;100883.81;5054492;28;20793;-78
2021/06/12 06:17:23;;;;;;;22.10;17.10;;;;;;;20.46;72.01;100882.81;5055429;28;20298;-77
2021/06/12 06:19:50;;;;;;;24.07;17.77;;;;;;;20.48;71.64;100879.97;5051537;28;20657;-77
2021/06/12 06:22:16;;;;;;;20.13;17.00;;;;;;;20.47;71.46;100873.69;5059177;28;20202;-78
2021/06/12 06:24:43;;;;;;;20.27;16.57;;;;;;;20.49;71.54;100871.69;5052124;28;20247;-78
2021/06/12 06:27:09;;;;;;;21.23;16.10;;;;;;;20.50;71.24;100861.72;5054606;28;20216;-78
2021/06/12 06:29:35;;;;;;;20.43;16.20;;;;;;;20.50;70.88;100864.44;5054207;28;20651;-78
2021/06/12 06:32:02;;;;;;;23.57;16.47;;;;;;;20.50;70.88;100873.41;5056276;28;20225;-79
2021/06/12 06:34:28;;;;;;;18.43;16.00;;;;;;;20.50;70.32;100872.53;5039641;28;20762;-78
2021/06/12 06:36:56;;;;;;;21.17;16.40;;;;;;;20.49;70.41;100858.16;5050401;28;20698;-77
2021/06/12 06:39:22;;;;;;;19.47;15.60;;;;;;;20.52;70.17;100865.97;5042842;28;20213;-77
2021/06/12 06:41:48;;;;;;;22.83;15.90;;;;;;;20.53;70.39;100867.69;5041608;28;20244;-78
2021/06/12 06:44:14;;;;;;;20.60;15.10;;;;;;;20.55;70.14;100871.09;5042341;28;20225;-78
2021/06/12 06:46:41;;;;;;;20.60;16.50;;;;;;;20.56;70.09;100875.50;5056527;28;20212;-77
2021/06/12 06:49:07;;;;;;;21.20;15.83;;;;;;;20.55;69.97;100883.75;5045004;28;20216;-78
2021/06/12 06:51:33;;;;;;;18.40;14.40;;;;;;;20.53;69.64;100872.25;5046460;28;20207;-78
2021/06/12 06:54:01;;;;;;;19.30;15.37;;;;;;;20.51;69.71;100876.97;5042624;28;20232;-77
2021/06/12 06:56:27;;;;;;;18.47;14.20;;;;;;;20.49;69.62;100876.25;5046991;28;20200;-78
2021/06/12 06:58:53;;;;;;;18.00;15.33;;;;;;;20.49;70.03;100878.97;5046655;28;20216;-77
2021/06/12 07:01:19;;;;;;;19.50;15.90;;;;;;;20.50;70.08;100875.25;5051964;28;20250;-76
2021/06/12 07:03:45;;;;;;;19.27;15.53;;;;;;;20.50;69.75;100875.25;5053107;28;20603;-76
2021/06/12 07:06:12;;;;;;;18.63;14.63;;;;;;;20.47;69.90;100859.31;5059017;28;20202;-77
2021/06/12 07:08:38;;;;;;;17.40;14.77;;;;;;;20.48;69.86;100858.31;5053039;28;20690;-77
2021/06/12 07:11:05;;;;;;;22.37;15.00;;;;;;;20.46;69.81;100861.19;5053441;28;20243;-77
2021/06/12 07:13:34;;;;;;;18.93;14.67;;;;;;;20.44;69.89;100876.72;5052627;28;20255;-76
2021/06/12 07:16:00;;;;;;;17.23;14.80;;;;;;;20.43;69.90;100867.75;5046622;28;20420;-76
2021/06/12 07:18:26;;;;;;;20.83;14.93;;;;;;;20.41;70.13;100872.50;5063191;28;20206;-78
2021/06/12 07:20:53;;;;;;;20.50;15.60;;;;;;;20.39;70.42;100879.06;5047829;28;20550;-78
2021/06/12 07:23:19;;;;;;;18.37;15.50;;;;;;;20.36;70.42;100874.81;5046338;28;20756;-77
2021/06/12 07:25:47;;;;;;;19.57;15.50;;;;;;;20.33;70.75;100872.38;5053136;28;20262;-77
2021/06/12 07:28:15;;;;;;;19.37;15.27;;;;;;;20.33;71.25;100876.94;5060926;28;20287;-77
2021/06/12 07:30:42;;;;;;;19.47;15.23;;;;;;;20.32;71.50;100870.66;5050902;28;20237;-77
2021/06/12 07:33:09;;;;;;;18.87;16.53;;;;;;;20.32;71.84;100865.25;5051500;28;20204;-77
2021/06/12 07:35:36;;;;;;;18.37;15.43;;;;;;;20.32;72.35;100861.69;5072436;22;20235;-67
2021/06/12 07:38:03;;;;;;;21.30;17.13;;;;;;;20.29;72.41;100864.72;5074579;28;20287;-67
2021/06/12 07:40:29;;;;;;;18.50;16.40;;;;;;;20.24;72.59;100858.94;5071226;28;20652;-66
2021/06/12 07:42:55;;;;;;;18.27;16.30;;;;;;;20.19;72.99;100866.66;5067106;28;20297;-66
2021/06/12 07:45:23;;;;;;;18.47;16.40;;;;;;;20.14;73.25;100861.69;5110285;22;20525;-66
2021/06/12 07:47:50;;;;;;;23.43;17.43;;;;;;;20.09;73.65;100867.56;5098796;28;20269;-66
2021/06/12 07:50:17;;;;;;;20.87;17.23;;;;;;;20.04;74.10;100878.00;5099426;28;20463;-66
2021/06/12 07:52:43;;;;;;;20.33;17.90;;;;;;;19.98;74.39;100866.94;5097658;28;20216;-66
2021/06/12 07:55:10;;;;;;;21.27;18.33;;;;;;;19.94;74.87;100873.66;5093734;28;20253;-67
2021/06/12 07:57:37;;;;;;;28.90;18.43;;;;;;;19.94;75.29;100860.97;5093008;28;20227;-67
2021/06/12 08:00:04;;;;;;;21.13;17.70;;;;;;;19.94;75.74;100855.56;5095710;28;20233;-67
2021/06/12 08:02:32;;;;;;;22.00;19.23;;;;;;;19.93;75.95;100863.84;5093481;28;20234;-67
2021/06/12 08:04:58;;;;;;;24.47;19.43;;;;;;;19.97;76.15;100870.66;5090181;28;20226;-67
2021/06/12 08:07:24;;;;;;;20.60;17.60;;;;;;;19.97;76.39;100859.81;5091146;28;20313;-68
2021/06/12 08:09:50;;;;;;;22.17;18.90;;;;;;;20.02;76.68;100855.66;5089883;28;20236;-67
2021/06/12 08:12:16;;;;;;;23.70;18.80;;;;;;;20.09;76.84;100864.00;5091875;28;20283;-66
2021/06/12 08:14:43;;;;;;;19.70;17.00;;;;;;;20.19;76.95;100874.75;5092767;28;20271;-66
2021/06/12 08:17:09;;;;;;;19.23;16.20;;;;;;;20.27;76.80;100866.72;5089535;28;20695;-66
2021/06/12 08:19:37;;;;;;;19.17;17.03;;;;;;;20.30;76.50;100864.56;5091013;28;20206;-66
2021/06/12 08:22:03;;;;;;;19.40;15.50;;;;;;;20.37;76.41;100864.84;5087370;28;20310;-66
2021/06/12 08:24:29;;;;;;;20.13;15.10;;;;;;;20.42;75.94;100849.81;5090617;28;20266;-66
2021/06/12 08:26:57;;;;;;;17.67;15.83;;;;;;;20.47;75.43;100845.78;5090197;28;20250;-67
2021/06/12 08:29:23;;;;;;;16.77;15.07;;;;;;;20.54;75.33;100852.28;5091631;28;20685;-66
2021/06/12 08:31:49;;;;;;;16.20;14.50;;;;;;;20.60;75.07;100846.28;5087927;28;20355;-66
2021/06/12 08:34:15;;;;;;;15.50;13.93;;;;;;;20.66;74.38;100853.75;5089838;28;20222;-66
2021/06/12 08:36:43;;;;;;;17.17;13.57;;;;;;;20.71;73.93;100851.41;5088371;28;20296;-66
2021/06/12 08:39:18;;;;;;;13.97;12.47;;;;;;;20.74;73.66;100857.38;5090231;28;20242;-66
2021/06/12 08:41:44;;;;;;;15.13;13.53;;;;;;;20.78;73.03;100847.91;5092438;28;20241;-66
2021/06/12 08:44:12;;;;;;;14.97;12.50;;;;;;;20.82;72.73;100853.00;5092083;28;20263;-66
2021/06/12 08:46:39;;;;;;;15.70;12.57;;;;;;;20.87;72.48;100847.97;5094278;28;20202;-66
2021/06/12 08:49:06;;;;;;;14.40;12.90;;;;;;;20.92;72.22;100851.06;5090997;28;20643;-66
2021/06/12 08:51:32;;;;;;;13.37;12.07;;;;;;;20.95;71.68;100842.63;5091992;28;20240;-64
2021/06/12 08:54:00;;;;;;;14.23;12.10;;;;;;;20.97;71.02;100843.28;5091597;28;20661;-66
2021/06/12 08:56:26;;;;;;;12.83;11.53;;;;;;;20.95;70.38;100837.22;5097483;28;20231;-65
2021/06/12 08:58:52;;;;;;;13.77;11.50;;;;;;;20.95;70.33;100835.34;5103445;28;20697;-68
2021/06/12 09:01:19;;;;;;;12.50;11.20;;;;;;;20.98;70.17;100837.72;5103756;28;20748;-69
2021/06/12 09:03:46;;;;;;;13.00;11.33;;;;;;;21.02;69.89;100840.97;5102014;28;20276;-70
2021/06/12 09:06:13;;;;;;;14.10;11.37;;;;;;;21.06;69.71;100850.47;5108280;28;20206;-67
2021/06/12 09:08:40;;;;;;;11.73;10.53;;;;;;;21.09;69.21;100840.19;5100849;28;20312;-68
2021/06/12 09:11:10;;;;;;;13.10;10.90;;;;;;;21.12;69.33;100837.16;5105227;28;20335;-69
2021/06/12 09:13:44;;;;;;;11.80;10.47;;;;;;;21.22;69.24;100847.88;5103644;28;20194;-68
2021/06/12 09:16:32;;;;;;;12.70;10.27;;;;;;;21.28;68.88;100833.72;5104566;28;20202;-68
2021/06/12 09:19:04;;;;;;;11.47;9.57;;;;;;;21.32;68.17;100842.34;5107105;28;20698;-68
2021/06/12 09:21:33;;;;;;;12.87;10.00;;;;;;;21.36;67.80;100847.28;5104319;28;20301;-69
2021/06/12 09:24:00;;;;;;;10.83;9.73;;;;;;;21.41;67.51;100853.06;5107963;28;20218;-68
2021/06/12 09:26:45;;;;;;;10.40;9.43;;;;;;;21.51;67.73;100841.25;5106810;28;20706;-68
2021/06/12 09:29:17;;;;;;;9.60;8.60;;;;;;;21.61;67.15;100847.41;5103622;28;20238;-67
2021/06/12 09:31:46;;;;;;;9.63;8.63;;;;;;;21.72;66.90;100838.94;5103988;28;20633;-68
2021/06/12 09:34:14;;;;;;;9.80;8.32;;;;;;;21.85;66.51;100841.22;5096291;28;20230;-68
2021/06/12 09:36:41;;;;;;;10.57;8.25;;;;;;;21.92;65.44;100834.09;5100364;28;20270;-68
2021/06/12 09:39:13;;;;;;;9.23;8.32;;;;;;;21.97;65.46;100831.75;5096823;28;20294;-70
2021/06/12 09:41:41;;;;;;;8.45;7.65;;;;;;;22.07;65.26;100821.59;5092647;28;20631;-69
2021/06/12 09:44:09;;;;;;;10.75;7.57;;;;;;;22.12;64.37;100821.97;5090127;28;20269;-68
2021/06/12 09:46:41;;;;;;;8.02;7.25;;;;;;;22.17;64.18;100823.16;5093777;28;20719;-68
2021/06/12 09:49:10;;;;;;;9.35;7.70;;;;;;;22.27;63.77;100819.44;5093363;28;20211;-69
2021/06/12 09:51:37;;;;;;;8.05;7.22;;;;;;;22.29;62.95;100822.81;5093075;28;20720;-69
2021/06/12 09:54:05;;;;;;;8.50;7.70;;;;;;;22.33;62.61;100818.75;5094652;28;20314;-68
2021/06/12 09:56:33;;;;;;;8.25;7.50;;;;;;;22.38;62.53;100822.69;5096793;27;20215;-70
2021/06/12 09:59:01;;;;;;;9.45;7.47;;;;;;;22.47;62.10;100823.50;5101269;28;20302;-69
2021/06/12 10:01:32;;;;;;;8.55;7.75;;;;;;;22.55;61.56;100825.38;5102911;28;20215;-69
2021/06/12 10:04:12;;;;;;;8.55;7.55;;;;;;;22.62;61.59;100827.22;5094595;28;20240;-69
2021/06/12 10:06:38;;;;;;;8.07;7.28;;;;;;;22.67;61.29;100824.84;5095886;28;20228;-67
2021/06/12 10:09:06;;;;;;;8.75;7.80;;;;;;;22.69;60.65;100833.69;5094529;28;20228;-68
2021/06/12 10:11:33;;;;;;;9.65;7.65;;;;;;;22.66;60.33;100823.16;5094213;28;20219;-68
2021/06/12 10:14:00;;;;;;;9.30;6.93;;;;;;;22.62;60.25;100831.81;5093724;28;20230;-68
2021/06/12 10:16:27;;;;;;;9.98;7.75;;;;;;;22.59;60.28;100816.72;5096136;28;20222;-69
2021/06/12 10:18:56;;;;;;;7.65;6.97;;;;;;;22.58;60.17;100806.88;5093433;28;20203;-68
2021/06/12 10:21:23;;;;;;;7.75;7.00;;;;;;;22.63;60.55;100817.22;5094994;28;20287;-69
2021/06/12 10:23:51;;;;;;;7.78;6.95;;;;;;;22.70;60.06;100815.53;5096423;28;20246;-70
2021/06/12 10:26:20;;;;;;;7.18;6.55;;;;;;;22.71;59.81;100809.94;5095195;28;20207;-70
2021/06/12 10:28:47;;;;;;;7.97;7.28;;;;;;;22.71;59.53;100814.50;5095329;28;20224;-69
2021/06/12 10:31:20;;;;;;;8.15;6.38;;;;;;;22.69;59.42;100822.81;5095033;28;20332;-70
2021/06/12 10:33:48;;;;;;;7.85;6.75;;;;;;;22.66;59.46;100823.16;5093123;28;20251;-68
2021/06/12 10:36:17;;;;;;;8.13;7.32;;;;;;;22.62;59.66;100824.53;5093987;28;20284;-68
2021/06/12 10:38:45;;;;;;;7.68;7.07;;;;;;;22.58;59.60;100831.31;5092418;28;20233;-70
2021/06/12 10:41:16;;;;;;;7.53;6.82;;;;;;;22.49;59.97;100835.91;5094250;28;20659;-69
2021/06/12 10:43:43;;;;;;;7.70;7.00;;;;;;;22.44;60.29;100838.25;5094712;28;21289;-69
2021/06/12 10:46:15;;;;;;;7.97;7.18;;;;;;;22.39;60.39;100847.94;5095675;28;20200;-69
2021/06/12 10:48:43;;;;;;;7.82;7.03;;;;;;;22.30;60.11;100848.94;5099457;28;20618;-67
2021/06/12 10:51:11;;;;;;;7.68;6.97;;;;;;;22.20;60.20;100848.28;5102667;28;20205;-69
2021/06/12 10:53:41;;;;;;;7.85;7.15;;;;;;;22.12;60.21;100857.22;5098396;28;20446;-70
2021/06/12 10:56:08;;;;;;;7.68;6.90;;;;;;;22.07;60.12;100844.16;5092580;28;20621;-70
2021/06/12 10:58:43;;;;;;;8.63;7.75;;;;;;;22.03;60.27;100848.25;5095888;28;20211;-70
2021/06/12 11:01:14;;;;;;;8.10;7.40;;;;;;;22.01;60.59;100844.84;5090192;28;20453;-68
2021/06/12 11:03:55;;;;;;;7.70;6.85;;;;;;;22.00;60.57;100842.28;5091659;28;20681;-68
2021/06/12 11:06:45;;;;;;;7.90;7.20;;;;;;;22.03;60.58;100850.09;5093803;28;20708;-68
2021/06/12 11:09:39;;;;;;;7.85;6.55;;;;;;;22.12;60.46;100849.09;5084479;28;20323;-68
2021/06/12 11:12:30;;;;;;;7.07;6.47;;;;;;;22.22;59.43;100836.22;5100593;28;20200;-70
2021/06/12 11:14:59;;;;;;;6.65;6.05;;;;;;;22.28;58.59;100842.84;5098054;28;20219;-69
2021/06/12 11:17:26;;;;;;;5.85;5.35;;;;;;;22.34;58.07;100836.75;5095023;28;20200;-68
2021/06/12 11:20:27;;;;;;;6.75;6.15;;;;;;;22.43;58.09;100836.56;5095136;28;20287;-70